Portada
METAR-TAF:

METAR-TAF

Aeropuertos :

Túnez, Túnez

Aeropuerto Internacional de Túnez-Cartago

latitud: 36-50N, longitud: 010-14E, altitud: 3 m

Observación

El informe se hizo hace 21 minutos, a las 22:00 UTC
Viento 20 kt del oeste-noroeste con ráfagas de 34 kt, variando entre oeste y noroeste
Temperatura 16°C
Humedad 72%
Presión 1016 hPa
Visibilidad 10 km o más
Nubes dispersas a una altura de 2600 ft

METAR: DTTA 212200Z 29020G34KT 260V320 9999 SCT026 16/11 Q1016 NOSIG

Hora: 23:21 (22:21 UTC)

Pronóstico

El informe se hizo hace 4 horas y 56 minutos, a las 17:25 UTC
Pronóstico válido del 21 a las 18 UTC al 22 a las 18 UTC
Viento 20 kt del oeste-noroeste con ráfagas de 40 kt
Visibilidad 10 km o más
Nubes dispersas a una altura de 2600 ft

TAF: DTTA 211725Z 2118/2218 29020G40KT 9999 SCT026

Observaciones y pronósticos meteorológicos de más de 4000 aeropuertos (mensajes METAR y TAF).

Los puntos amarillos y rojos representan las estaciones disponibles.

Ponga el ratón en el punto deseado para ver el nombre de la estación.

Haga clic para ver las observaciones y los pronósticos meteorológicos.

Para cambiar el mapa : haga clic en los botones verdes con una cruz de color negro para hacer un zoom, en el botón verde con un guión para alejar o en las flechas verdes para mapas adyacentes.


METAR-TAF: